This is the latest recevied weather packets stored in our database for station/object KD2SIG. If no packets are shown the sender has not sent any weather packets the latest 1 day(s).
| Time | Temp. | Humidity | Pressure | Rain* | Wind** | Luminosity | Snow |
|---|---|---|---|---|---|---|---|
| 1777990998 | 21.67° C | 61% | 1002.7 hPa | 0 mm | 3.13 m/s, 265° | 349 W/m² | - |
| 1777990695 | 21.67° C | 62% | 1002.7 hPa | 0 mm | 2.68 m/s, 329° | 340 W/m² | - |
| 1777990392 | 21.11° C | 62% | 1002.6 hPa | 0 mm | 3.13 m/s, 262° | 314 W/m² | - |
| 1777990088 | 21.67° C | 62% | 1002.6 hPa | 0 mm | 4.02 m/s, 254° | 256 W/m² | - |
| 1777989785 | 21.67° C | 62% | 1002.7 hPa | 0 mm | 3.13 m/s, 253° | 278 W/m² | - |
| 1777989482 | 21.67° C | 62% | 1002.7 hPa | 0 mm | 3.13 m/s, 263° | 409 W/m² | - |
| 1777989178 | 21.11° C | 62% | 1002.6 hPa | 0 mm | 2.24 m/s, 237° | 502 W/m² | - |
| 1777988874 | 21.67° C | 63% | 1002.7 hPa | 0 mm | 1.34 m/s, 286° | 312 W/m² | - |
| 1777988572 | 21.67° C | 62% | 1002.6 hPa | 0 mm | 1.34 m/s, 309° | 388 W/m² | - |
| 1777988268 | 21.11° C | 64% | 1002.6 hPa | 0 mm | 3.13 m/s, 251° | 478 W/m² | - |
| 1777987965 | 21.11° C | 65% | 1002.6 hPa | 0 mm | 1.34 m/s, 237° | 527 W/m² | - |
| 1777987660 | 20.56° C | 66% | 1002.6 hPa | 0 mm | 3.13 m/s, 206° | 563 W/m² | - |
| 1777987358 | 20.56° C | 66% | 1002.6 hPa | 0 mm | 2.24 m/s, 220° | 394 W/m² | - |
| 1777987055 | 20° C | 66% | 1002.6 hPa | 0 mm | 2.24 m/s, 154° | 511 W/m² | - |
| 1777986752 | 20° C | 67% | 1002.7 hPa | 0 mm | 2.68 m/s, 215° | 464 W/m² | - |
| 1777986450 | 20° C | 66% | 1002.5 hPa | 0 mm | 3.13 m/s, 218° | 344 W/m² | - |
| 1777986148 | 20° C | 66% | 1002.6 hPa | 0 mm | 1.79 m/s, 307° | 160 W/m² | - |
| 1777985845 | 20° C | 66% | 1002.5 hPa | 0 mm | 1.79 m/s, 274° | 388 W/m² | - |
| 1777985542 | 20° C | 66% | 1002.5 hPa | 0 mm | 2.24 m/s, 227° | 246 W/m² | - |
| 1777985239 | 20° C | 66% | 1002.4 hPa | 0 mm | 1.79 m/s, 214° | 271 W/m² | - |
| 1777984936 | 20° C | 67% | 1002.7 hPa | 0 mm | 1.79 m/s, 269° | 207 W/m² | - |
| 1777984631 | 19.44° C | 68% | 1002.5 hPa | 0 mm | 0.89 m/s, 260° | 269 W/m² | - |
| 1777984329 | 19.44° C | 67% | 1002.6 hPa | 0 mm | 2.24 m/s, 266° | 225 W/m² | - |
| 1777984025 | 19.44° C | 67% | 1002.6 hPa | 0 mm | 1.79 m/s, 225° | 330 W/m² | - |
| 1777983722 | 19.44° C | 67% | 1002.6 hPa | 0 mm | 1.34 m/s, 236° | 141 W/m² | - |
* Rain latest hour (hover to see other rain measurements)
** Current wind speed in m/s (hover to see current wind gust speed)